Latest Coastal Weather Observations for Albion Park

IDN60701

Issued at 10:01 pm EST Tuesday 31 May 2016 (issued every 10 minutes, with the page automatically refreshed every 10 minutes)

About coastal observations | Map of coastal stations | Coastal observations for NSW | Marine services | Other Formats
Station Details ID: 068241 Name: WOLLONGONG AIRPORT Lat: -34.56 Lon: 150.79 Height: 8.0 m
Data from the previous 72 hours. | See also: Recent months at Albion Park
Date/Time
EST
Temp

°C
Wind Pressure Rain
since 9am
mm
Weather Cloud Vis
km
Sea
Height
m
Swell
Dir
 
Speed
knots
Gust
knots
hPa Trend Height
m
Period
s
Dir
31/09:30pm 12.1 W 4 5 1029.6 - 19.0 - Partly cloudy 10 - - - -
31/09:00pm 12.5 W 4 5 1029.7 - 19.0 - Cloudy 10 - - - -
31/08:30pm 12.5 WSW 4 5 1029.6 - 19.0 - Partly cloudy 10 - - - -
31/08:00pm 12.4 WSW 5 7 1029.6 - 19.0 - Partly cloudy 10 - - - -
31/07:30pm 12.4 W 6 7 1029.4 - 19.0 - Partly cloudy 10 - - - -
31/07:00pm 12.6 WSW 5 6 1029.4 - 18.8 - Partly cloudy 8 - - - -
31/06:56pm 12.6 WSW 5 6 1029.4 - 18.6 - Partly cloudy 9 - - - -
31/06:30pm 12.7 WSW 5 6 1029.4 - 16.8 - Partly cloudy 4 - - - -
31/06:00pm 12.9 W 5 6 1029.2 - 12.6 Rain Partly cloudy 4 - - - -
31/05:30pm 13.1 W 4 5 1029.0 - 9.8 - Partly cloudy 4 - - - -
31/05:26pm 13.1 W 4 6 1029.0 - 9.6 - Partly cloudy 5 - - - -
31/05:00pm 13.2 W 7 9 1028.5 - 9.2 - Partly cloudy 10 - - - -
31/04:30pm 13.5 SW 5 7 1028.4 - 8.6 - Partly cloudy 10 - - - -
31/04:11pm 13.5 SSW 6 8 1028.5 - 8.0 - Partly cloudy 6 - - - -
31/04:05pm 13.5 SSW 6 8 1028.5 - 7.6 - Partly cloudy 6 - - - -
31/04:00pm 13.6 SSW 6 7 1028.6 - 7.2 - Partly cloudy 6 - - - -
31/03:59pm 13.7 SSW 6 7 1028.6 - 7.2 - Partly cloudy 6 - - - -
31/03:30pm 14.0 S 2 4 1028.6 - 4.8 - Partly cloudy 5 - - - -
31/03:15pm 13.9 SSE 4 6 1028.5 - 3.8 - Partly cloudy 5 - - - -
31/03:00pm 14.2 SSE 5 7 1028.4 - 3.2 Rain Mostly cloudy 10 - - - -
31/02:30pm 14.3 SE 5 7 1028.3 - 2.8 - Partly cloudy 7 - - - -
31/02:21pm 14.2 SE 5 7 1028.2 - 2.6 - Partly cloudy 10 - - - -
31/02:11pm 14.3 SE 5 8 1028.3 - 2.4 - Partly cloudy 5 - - - -
31/02:00pm 14.3 ESE 6 9 1028.3 - 1.8 - Partly cloudy 3 - - - -
31/01:50pm 14.7 E 8 11 1028.3 - 1.0 - Partly cloudy 5 - - - -
31/01:40pm 15.8 NE 6 9 1028.2 - 0.0 - Partly cloudy 10 - - - -
31/01:30pm 16.1 E 5 7 1028.2 - 0.0 - Partly cloudy 10 - - - -
31/01:00pm 15.9 ESE 6 8 1028.4 - 0.0 - Partly cloudy 10 - - - -
31/12:36pm 16.2 E 7 12 1028.5 - 0.0 - Partly cloudy 10 - - - -
31/12:30pm 16.3 ESE 7 12 1028.5 - 0.0 - Partly cloudy 10 - - - -
31/12:20pm 16.7 SE 7 9 1028.5 - 0.0 - Partly cloudy 10 - - - -
31/12:00pm 17.5 ESE 5 9 1028.7 - 0.0 - Cloudy 10 - - - -
31/11:30am 16.7 SE 6 8 1029.0 - 0.0 - Partly cloudy 10 - - - -
31/11:00am 16.7 SSE 6 8 1029.4 - 0.0 - Partly cloudy 10 - - - -
31/10:30am 16.7 SSW 5 7 1029.5 - 0.0 - Partly cloudy 10 - - - -
31/10:00am 16.7 SSW 8 11 1029.6 - 0.0 - Partly cloudy 10 - - - -
31/09:30am 16.9 NW 2 4 1029.7 - 0.0 - Partly cloudy 10 - - - -
31/09:00am 14.7 W 3 4 1029.5 - 0.0 - Mostly clear 10 - - - -
31/08:30am 13.7 SW 3 4 1029.4 - 0.0 - Cloudy 10 - - - -
31/08:00am 11.8 WSW 5 5 1029.2 - 0.0 - Partly cloudy 10 - - - -
31/07:30am 11.4 W 6 7 1028.9 - 0.0 - - 10 - - - -
31/07:00am 11.3 SW 6 7 1028.7 - 0.0 - Partly cloudy 10 - - - -
31/06:30am 11.8 SW 5 6 1028.4 - 0.0 - Partly cloudy 10 - - - -
31/06:00am 12.3 WSW 5 7 1028.1 - 0.0 - Partly cloudy 10 - - - -
31/05:30am 12.2 WSW 6 8 1027.9 - 0.0 - Partly cloudy 10 - - - -
31/05:00am 11.8 SW 6 8 1027.6 - 0.0 - Partly cloudy 10 - - - -
31/04:30am 10.6 WSW 8 9 1027.3 - 0.0 - Partly cloudy 10 - - - -
31/04:00am 11.2 SW 5 7 1027.5 - 0.0 - - 10 - - - -
31/03:30am 10.3 WSW 7 8 1027.4 - 0.0 - Partly cloudy 10 - - - -
31/03:00am 10.2 WSW 7 8 1027.3 - 0.0 - - 10 - - - -
31/02:30am 10.4 WSW 8 10 1027.4 - 0.0 - - 10 - - - -
31/02:00am 10.0 WSW 7 8 1027.3 - 0.0 - - 10 - - - -
31/01:30am 10.3 WSW 7 10 1027.5 - 0.0 - - 10 - - - -
31/01:00am 9.8 WSW 8 9 1027.5 - 0.0 - - 10 - - - -
31/12:30am 8.8 WSW 4 5 1027.5 - 0.0 - - 10 - - - -
31/12:00am 8.7 WSW 5 6 1027.6 - 0.0 - Partly cloudy 10 - - - -
 
Date/Time
EST
Temp

°C
Wind Pressure Rain
since 9am
mm
Weather Cloud Vis
km
Sea
Height
m
Swell
Dir
 
Speed
knots
Gust
knots
hPa Trend Height
m
Period
s
Dir
30/11:30pm 9.9 WSW 5 7 1027.7 - 0.0 - - 10 - - - -
30/11:00pm 10.7 WSW 6 8 1027.7 - 0.0 - Partly cloudy 10 - - - -
30/10:30pm 9.8 CALM 0 0 1027.6 - 0.0 - Partly cloudy 10 - - - -
30/10:00pm 12.1 NNW 2 4 1027.5 - 0.0 - Partly cloudy 10 - - - -
30/09:30pm 11.8 SW 7 8 1027.3 - 0.0 - Cloudy 10 - - - -
30/09:00pm 8.9 WSW 4 6 1027.2 - 0.0 - Cloudy 10 - - - -
30/08:30pm 8.6 W 3 4 1027.3 - 0.0 - Cloudy 10 - - - -
30/08:00pm 8.2 WSW 4 6 1027.2 - 0.0 - Partly cloudy 10 - - - -
30/07:30pm 7.2 W 4 5 1027.0 - 0.0 - Partly cloudy 10 - - - -
30/07:00pm 8.2 W 4 5 1026.7 - 0.0 - - 10 - - - -
30/06:30pm 9.1 W 3 5 1026.6 - 0.0 - - 10 - - - -
30/06:00pm 11.0 SSW 5 5 1026.2 - 0.0 - - 10 - - - -
30/05:30pm 13.2 SW 4 5 1025.9 - 0.0 - - 10 - - - -
30/05:00pm 13.6 SW 5 6 1025.5 - 0.0 - - 10 - - - -
30/04:30pm 15.2 SSW 8 11 1025.2 - 0.0 - - 10 - - - -
30/04:00pm 16.1 SSW 10 13 1025.0 - 0.0 - - 10 - - - -
30/03:30pm 16.9 SSW 9 13 1024.7 - 0.0 - - 10 - - - -
30/03:00pm 17.3 SSW 8 12 1024.6 - 0.0 - - 10 - - - -
30/02:30pm 17.6 SSE 6 11 1024.3 - 0.0 - - 10 - - - -
30/02:00pm 17.5 S 4 8 1024.2 - 0.0 - - 10 - - - -
30/01:30pm 17.6 SE 4 9 1024.2 - 0.0 - - 10 - - - -
30/01:00pm 17.3 SSW 6 9 1024.2 - 0.0 - - 10 - - - -
30/12:30pm 16.9 S 7 10 1024.6 - 0.0 - - 10 - - - -
30/12:00pm 16.8 S 7 11 1024.8 - 0.0 - - 10 - - - -
30/11:30am 16.5 S 6 10 1025.3 - 0.0 - - 10 - - - -
30/11:00am 16.3 SSW 7 10 1025.6 - 0.0 - - 10 - - - -
30/10:30am 16.0 SW 8 13 1025.7 - 0.0 - - 10 - - - -
30/10:00am 15.7 SW 5 8 1025.7 - 0.0 - - 10 - - - -
30/09:30am 14.8 WSW 7 9 1025.6 - 0.0 - - 10 - - - -
30/09:00am 13.4 WSW 7 10 1025.2 - 0.0 - - 10 - - - -
30/08:30am 11.8 WSW 5 7 1025.1 - 0.0 - - 10 - - - -
30/08:00am 10.0 WSW 7 9 1024.8 - 0.0 - - 10 - - - -
30/07:30am 8.2 SW 5 6 1024.6 - 0.0 - - 10 - - - -
30/07:00am 7.5 W 4 6 1024.2 - 0.0 - - 10 - - - -
30/06:30am 8.2 WSW 5 7 1023.7 - 0.0 - - 10 - - - -
30/06:00am 8.2 WSW 7 10 1023.3 - 0.0 - - 10 - - - -
30/05:30am 7.9 W 8 12 1023.0 - 0.0 - - 10 - - - -
30/05:00am 8.2 WSW 6 10 1022.7 - 0.0 - - 10 - - - -
30/04:30am 8.1 W 9 11 1022.3 - 0.0 - - 10 - - - -
30/04:00am 8.4 WSW 10 12 1022.0 - 0.0 - - 10 - - - -
30/03:30am 8.9 WSW 9 12 1021.7 - 0.0 - - 10 - - - -
30/03:00am 9.3 W 11 16 1021.6 - 0.0 - - 10 - - - -
30/02:30am 9.6 WSW 10 15 1021.6 - 0.0 - - 10 - - - -
30/02:00am 9.8 WSW 13 18 1021.6 - 0.0 - - 10 - - - -
30/01:30am 9.9 W 12 16 1021.5 - 0.0 - - 10 - - - -
30/01:00am 10.1 WSW 16 21 1021.1 - 0.0 - - 10 - - - -
30/12:30am 10.1 WSW 14 20 1021.1 - 0.0 - - 10 - - - -
30/12:00am 10.1 W 13 17 1021.0 - 0.0 - - 10 - - - -
 
Date/Time
EST
Temp

°C
Wind Pressure Rain
since 9am
mm
Weather Cloud Vis
km
Sea
Height
m
Swell
Dir
 
Speed
knots
Gust
knots
hPa Trend Height
m
Period
s
Dir
29/11:30pm 10.1 W 13 18 1021.0 - 0.0 - - 10 - - - -
29/11:00pm 10.1 WSW 12 16 1020.9 - 0.0 - - 10 - - - -
29/10:30pm 10.7 WSW 13 18 1020.9 - 0.0 - - 10 - - - -
29/10:00pm 10.9 W 12 17 1020.8 - 0.0 - - 10 - - - -
29/09:30pm 11.5 W 18 23 1020.6 - 0.0 - - 10 - - - -
29/09:00pm 11.9 WSW 17 23 1020.4 - 0.0 - - 10 - - - -
29/08:30pm 12.4 WNW 10 14 1020.5 - 0.0 - - 10 - - - -
29/08:00pm 12.0 NW 9 13 1020.3 - 0.0 - - 10 - - - -
29/07:30pm 12.0 N 5 8 1019.6 - 0.0 - - 10 - - - -
29/07:00pm 12.4 NNW 6 9 1019.2 - 0.0 - - 10 - - - -
29/06:30pm 12.0 E 5 7 1018.9 - 0.0 - - 10 - - - -
29/06:00pm 12.6 NW 5 9 1018.6 - 0.0 - - 10 - - - -
29/05:30pm 12.7 WSW 11 14 1018.0 - 0.0 - - 10 - - - -
29/05:00pm 12.5 WSW 12 14 1017.6 - 0.0 - - 10 - - - -
29/04:30pm 14.7 W 11 14 1017.2 - 0.0 - - 10 - - - -
29/04:00pm 16.9 SW 11 14 1017.0 - 0.0 - - 10 - - - -
29/03:30pm 17.7 SW 9 12 1016.7 - 0.0 - - 10 - - - -
29/03:00pm 17.9 WSW 11 15 1016.5 - 0.0 - - 10 - - - -
29/02:30pm 18.3 W 9 12 1016.2 - 0.0 - - 10 - - - -
29/02:00pm 18.4 SW 6 11 1016.0 - 0.0 - - 10 - - - -
29/01:30pm 18.2 WSW 10 14 1015.9 - 0.0 - - 10 - - - -
29/01:00pm 17.7 WSW 8 12 1015.8 - 0.0 - - 10 - - - -
29/12:30pm 17.2 W 14 16 1015.8 - 0.0 - - 10 - - - -
29/12:00pm 17.7 W 11 16 1016.0 - 0.0 - - 10 - - - -
29/11:30am 17.1 W 12 16 1016.3 - 0.0 - - 10 - - - -
29/11:00am 16.1 W 13 18 1016.6 - 0.0 - - 10 - - - -
29/10:30am 15.3 W 14 18 1016.9 - 0.0 - - 10 - - - -
29/10:00am 14.6 W 17 21 1017.0 - 0.0 - - 10 - - - -
29/09:30am 13.9 W 15 19 1016.7 - 0.0 - - 10 - - - -
29/09:00am 13.1 W 15 19 1016.5 - 3.4 - - 10 - - - -
29/08:30am 12.2 W 18 23 1016.2 - 3.4 - - 10 - - - -
29/08:00am 11.2 W 17 20 1016.0 - 3.4 - - 10 - - - -
29/07:30am 10.2 W 15 19 1015.6 - 3.4 - - 10 - - - -
29/07:00am 9.7 W 16 20 1015.3 - 3.4 - - 10 - - - -
29/06:30am 9.7 W 16 19 1015.0 - 3.4 - - 10 - - - -
29/06:00am 9.5 W 16 19 1014.7 - 3.4 - - 10 - - - -
29/05:30am 10.0 W 15 19 1014.3 - 3.4 - - 10 - - - -
29/05:00am 10.0 W 17 24 1014.0 - 3.4 - - 10 - - - -
29/04:30am 10.3 W 15 22 1013.9 - 3.4 - - 10 - - - -
29/04:00am 10.9 W 13 19 1013.6 - 3.4 - - 10 - - - -
29/03:30am 11.2 W 17 25 1013.3 - 3.4 - - 10 - - - -
29/03:00am 10.5 W 15 20 1013.0 - 3.4 - - 10 - - - -
29/02:30am 10.9 WSW 16 21 1013.0 - 3.4 - - 10 - - - -
29/02:00am 10.7 WSW 15 19 1013.0 - 3.4 - - 10 - - - -
29/01:30am 10.9 WSW 18 23 1012.6 - 3.4 - - 10 - - - -
29/01:00am 10.9 WSW 17 21 1012.5 - 3.4 - - 10 - - - -
29/12:30am 11.3 WSW 19 25 1012.3 - 3.4 - - 10 - - - -
29/12:00am 11.1 WSW 19 24 1012.0 - 3.4 - - 10 - - - -
 
Date/Time
EST
Temp

°C
Wind Pressure Rain
since 9am
mm
Weather Cloud Vis
km
Sea
Height
m
Swell
Dir
 
Speed
knots
Gust
knots
hPa Trend Height
m
Period
s
Dir
28/11:30pm 11.6 WSW 18 24 1012.0 - 3.4 - - 10 - - - -
28/11:00pm 11.6 W 17 23 1012.1 - 3.4 - - 10 - - - -
28/10:30pm 11.7 W 15 22 1011.8 - 3.4 - - 10 - - - -

Other Formats:

Comma delimited format used in spreadsheet applications
http://www.bom.gov.au/fwo/IDN60701/IDN60701.95748.axf

JavaScript Object Notation format (JSON) in row-major order
http://www.bom.gov.au/fwo/IDN60701/IDN60701.95748.json